TimeCST,TemperatureF,Dew PointF,Humidity,Sea Level PressureIn,VisibilityMPH,Wind Direction,Wind SpeedMPH,Gust SpeedMPH,PrecipitationIn,Events,Conditions,WindDirDegrees,DateUTC
12:15 AM,24.8,15.8,69,30.02,10.0,West,10.4,-,N/A,,Overcast,260,2012-12-12 06:15:00
12:35 AM,24.8,15.8,69,30.03,10.0,West,9.2,-,N/A,,Overcast,260,2012-12-12 06:35:00
12:55 AM,23.0,17.6,80,30.04,10.0,West,9.2,-,N/A,,Overcast,260,2012-12-12 06:55:00
1:15 AM,23.0,17.6,80,30.05,10.0,West,12.7,16.1,N/A,,Overcast,270,2012-12-12 07:15:00
1:35 AM,23.0,15.8,74,30.06,10.0,West,10.4,17.3,N/A,,Overcast,260,2012-12-12 07:35:00
1:55 AM,23.0,15.8,74,30.07,10.0,West,9.2,-,N/A,,Overcast,260,2012-12-12 07:55:00
2:15 AM,23.0,15.8,74,30.08,10.0,West,10.4,-,N/A,,Overcast,270,2012-12-12 08:15:00
2:35 AM,21.2,15.8,80,30.09,10.0,West,10.4,-,N/A,,Mostly Cloudy,260,2012-12-12 08:35:00
2:55 AM,21.2,15.8,80,30.09,10.0,WSW,8.1,-,N/A,,Mostly Cloudy,250,2012-12-12 08:55:00
3:15 AM,21.2,14.0,74,30.09,10.0,WSW,5.8,-,N/A,,Mostly Cloudy,250,2012-12-12 09:15:00
3:35 AM,19.4,14.0,80,30.09,10.0,WSW,5.8,-,N/A,,Partly Cloudy,250,2012-12-12 09:35:00
3:55 AM,19.4,12.2,74,30.10,10.0,West,4.6,-,N/A,,Clear,260,2012-12-12 09:55:00
4:15 AM,19.4,14.0,80,30.10,10.0,WSW,4.6,-,N/A,,Clear,250,2012-12-12 10:15:00
4:35 AM,19.4,14.0,80,30.10,10.0,WSW,4.6,-,N/A,,Clear,240,2012-12-12 10:35:00
4:55 AM,19.4,14.0,80,30.11,10.0,WSW,4.6,-,N/A,,Clear,240,2012-12-12 10:55:00
5:15 AM,17.6,12.2,79,30.12,10.0,SW,5.8,-,N/A,,Clear,220,2012-12-12 11:15:00
5:35 AM,17.6,12.2,79,30.13,10.0,SW,5.8,-,N/A,,Clear,220,2012-12-12 11:35:00
5:55 AM,15.8,12.2,86,30.14,10.0,SSW,5.8,-,N/A,,Clear,200,2012-12-12 11:55:00
6:15 AM,15.8,12.2,86,30.15,10.0,SSW,5.8,-,N/A,,Clear,200,2012-12-12 12:15:00
6:35 AM,15.8,12.2,86,30.15,10.0,SSW,3.5,-,N/A,,Clear,200,2012-12-12 12:35:00
6:55 AM,15.8,12.2,86,30.15,10.0,SSW,4.6,-,N/A,,Mostly Cloudy,200,2012-12-12 12:55:00
7:15 AM,17.6,12.2,79,30.16,9.0,SSW,4.6,-,N/A,,Mostly Cloudy,210,2012-12-12 13:15:00
7:35 AM,17.6,12.2,79,30.16,8.0,SSW,3.5,-,N/A,,Mostly Cloudy,210,2012-12-12 13:35:00
7:55 AM,17.6,14.0,86,30.16,8.0,SW,3.5,-,N/A,,Mostly Cloudy,220,2012-12-12 13:55:00
8:15 AM,19.4,15.8,86,30.17,10.0,WSW,3.5,-,N/A,,Partly Cloudy,250,2012-12-12 14:15:00
8:35 AM,19.4,15.8,86,30.18,10.0,SSW,3.5,-,N/A,,Clear,200,2012-12-12 14:35:00
8:55 AM,19.4,17.6,93,30.18,9.0,Calm,Calm,-,N/A,,Clear,0,2012-12-12 14:55:00
9:15 AM,21.2,15.8,80,30.18,9.0,South,3.5,-,N/A,,Clear,190,2012-12-12 15:15:00
9:35 AM,21.2,17.6,86,30.19,9.0,Calm,Calm,-,N/A,,Clear,0,2012-12-12 15:35:00
9:55 AM,23.0,17.6,80,30.20,10.0,Calm,Calm,-,N/A,,Clear,0,2012-12-12 15:55:00
10:15 AM,24.8,17.6,74,30.20,10.0,South,3.5,-,N/A,,Clear,170,2012-12-12 16:15:00
10:35 AM,26.6,17.6,69,30.20,10.0,SSE,4.6,-,N/A,,Clear,160,2012-12-12 16:35:00
10:55 AM,26.6,17.6,69,30.19,10.0,South,6.9,-,N/A,,Clear,180,2012-12-12 16:55:00
11:15 AM,26.6,17.6,69,30.19,10.0,SSE,6.9,-,N/A,,Partly Cloudy,150,2012-12-12 17:15:00
11:35 AM,28.4,19.4,69,30.18,10.0,SE,6.9,-,N/A,,Partly Cloudy,140,2012-12-12 17:35:00
11:55 AM,28.4,21.2,74,30.17,10.0,SE,6.9,-,N/A,,Clear,140,2012-12-12 17:55:00
12:15 PM,30.2,24.8,80,30.16,10.0,SE,8.1,-,N/A,,Clear,130,2012-12-12 18:15:00
12:35 PM,30.2,24.8,80,30.14,10.0,SSE,4.6,-,N/A,,Clear,150,2012-12-12 18:35:00
12:55 PM,33.8,26.6,75,30.14,10.0,SE,8.1,-,N/A,,Clear,140,2012-12-12 18:55:00
1:15 PM,35.6,28.4,75,30.13,10.0,SSE,8.1,-,N/A,,Clear,150,2012-12-12 19:15:00
1:35 PM,35.6,30.2,81,30.13,10.0,South,11.5,-,N/A,,Partly Cloudy,180,2012-12-12 19:35:00
1:55 PM,35.6,28.4,75,30.12,10.0,South,13.8,17.3,N/A,,Mostly Cloudy,180,2012-12-12 19:55:00
2:15 PM,35.6,28.4,75,30.12,10.0,South,11.5,17.3,N/A,,Overcast,170,2012-12-12 20:15:00
2:35 PM,35.6,28.4,75,30.12,10.0,South,9.2,-,N/A,,Overcast,170,2012-12-12 20:35:00
2:55 PM,35.6,26.6,70,30.12,10.0,South,9.2,16.1,N/A,,Overcast,170,2012-12-12 20:55:00
3:15 PM,35.6,26.6,70,30.12,10.0,South,10.4,-,N/A,,Overcast,180,2012-12-12 21:15:00
3:35 PM,35.6,26.6,70,30.12,10.0,South,10.4,-,N/A,,Mostly Cloudy,170,2012-12-12 21:35:00
3:55 PM,35.6,26.6,70,30.12,10.0,South,11.5,-,N/A,,Mostly Cloudy,180,2012-12-12 21:55:00
4:15 PM,35.6,26.6,70,30.11,10.0,South,12.7,17.3,N/A,,Overcast,180,2012-12-12 22:15:00
4:35 PM,35.6,26.6,70,30.11,10.0,South,11.5,-,N/A,,Overcast,180,2012-12-12 22:35:00
4:55 PM,37.4,26.6,65,30.10,10.0,South,13.8,-,N/A,,Overcast,180,2012-12-12 22:55:00
5:15 PM,37.4,26.6,65,30.10,10.0,South,12.7,-,N/A,,Overcast,180,2012-12-12 23:15:00
5:35 PM,37.4,28.4,70,30.09,10.0,South,12.7,18.4,N/A,,Overcast,180,2012-12-12 23:35:00
6:15 PM,39.2,26.6,61,30.08,10.0,South,17.3,24.2,N/A,,Overcast,180,2012-12-13 00:15:00
6:55 PM,39.2,24.8,56,30.08,10.0,South,18.4,27.6,N/A,,Overcast,180,2012-12-13 00:55:00
7:15 PM,39.2,24.8,56,30.07,10.0,South,20.7,25.3,N/A,,Overcast,190,2012-12-13 01:15:00
7:35 PM,37.4,24.8,60,30.07,10.0,South,17.3,29.9,N/A,,Overcast,190,2012-12-13 01:35:00
7:55 PM,37.4,24.8,60,30.07,10.0,South,19.6,26.5,N/A,,Overcast,190,2012-12-13 01:55:00
8:15 PM,37.4,24.8,60,30.08,10.0,South,18.4,25.3,N/A,,Overcast,190,2012-12-13 02:15:00
8:35 PM,37.4,24.8,60,30.07,10.0,South,19.6,26.5,N/A,,Overcast,190,2012-12-13 02:35:00
8:55 PM,37.4,24.8,60,30.08,10.0,South,20.7,27.6,N/A,,Overcast,190,2012-12-13 02:55:00
9:35 PM,37.4,26.6,65,30.10,10.0,SSW,13.8,21.9,N/A,,Overcast,200,2012-12-13 03:35:00
9:55 PM,37.4,26.6,65,30.11,10.0,South,13.8,18.4,N/A,,Overcast,190,2012-12-13 03:55:00
10:15 PM,37.4,26.6,65,30.11,10.0,South,13.8,18.4,N/A,,Overcast,190,2012-12-13 04:15:00
10:35 PM,37.4,26.6,65,30.11,10.0,South,13.8,-,N/A,,Overcast,190,2012-12-13 04:35:00
10:55 PM,37.4,26.6,65,30.11,10.0,South,13.8,-,N/A,,Mostly Cloudy,190,2012-12-13 04:55:00
11:15 PM,37.4,24.8,60,30.11,10.0,South,12.7,-,N/A,,Overcast,190,2012-12-13 05:15:00
11:35 PM,37.4,26.6,65,30.11,10.0,South,13.8,-,N/A,,Overcast,190,2012-12-13 05:35:00
11:55 PM,37.4,26.6,65,30.11,10.0,South,11.5,18.4,N/A,,Overcast,190,2012-12-13 05:55:00